Time;durP1;ratioP1;P1;durP2;ratioP2;P2;SDS_P1;SDS_P2;PMS_P1;PMS_P2;Temp;Humidity;BMP_temperature;BMP_pressure;BME280_temperature;BME280_humidity;BME280_pressure;Samples;Min_cycle;Max_cycle;Signal;HPM_P1;HPM_P2
2021/04/20 00:01:36;;;;;;;19.83;8.40;;;6.80;80.20;;;;;;5091998;28;20506;-78
2021/04/20 00:04:04;;;;;;;21.20;10.07;;;6.80;80.40;;;;;;5092852;28;20059;-80
2021/04/20 00:06:30;;;;;;;16.70;9.00;;;6.80;80.40;;;;;;5092269;28;20123;-77
2021/04/20 00:08:56;;;;;;;18.77;10.00;;;6.80;80.60;;;;;;5078166;28;20111;-78
2021/04/20 00:11:21;;;;;;;17.67;9.83;;;6.80;80.60;;;;;;5091570;28;20838;-78
2021/04/20 00:13:47;;;;;;;17.50;9.27;;;6.80;80.50;;;;;;5087633;28;20027;-78
2021/04/20 00:16:13;;;;;;;17.53;9.30;;;6.80;80.80;;;;;;5079848;28;20362;-77
2021/04/20 00:18:38;;;;;;;19.57;9.57;;;6.70;80.60;;;;;;5091940;28;20028;-78
2021/04/20 00:21:04;;;;;;;20.20;9.33;;;6.90;80.30;;;;;;5076430;28;20097;-79
2021/04/20 00:23:30;;;;;;;20.83;9.97;;;6.90;80.20;;;;;;5090268;28;20099;-77
2021/04/20 00:25:55;;;;;;;20.47;9.90;;;6.80;80.80;;;;;;5082917;28;20024;-78
2021/04/20 00:28:25;;;;;;;21.50;9.63;;;6.90;80.30;;;;;;5091712;28;20053;-77
2021/04/20 00:30:52;;;;;;;21.43;9.70;;;6.90;80.30;;;;;;5090010;28;20028;-77
2021/04/20 00:33:18;;;;;;;19.93;9.83;;;6.80;80.60;;;;;;5075109;28;20039;-77
2021/04/20 00:35:44;;;;;;;20.43;10.17;;;6.90;80.60;;;;;;5091731;28;20024;-78
2021/04/20 00:38:10;;;;;;;19.63;9.80;;;6.90;80.30;;;;;;5091401;28;20040;-77
2021/04/20 00:40:36;;;;;;;20.17;9.07;;;6.90;79.80;;;;;;5091329;28;20050;-77
2021/04/20 00:43:02;;;;;;;19.03;9.07;;;6.80;79.80;;;;;;5092596;28;20078;-79
2021/04/20 00:45:31;;;;;;;17.43;9.03;;;6.70;80.00;;;;;;5091648;28;20028;-78
2021/04/20 00:47:57;;;;;;;16.30;9.10;;;6.70;80.40;;;;;;5093633;28;20110;-79
2021/04/20 00:50:29;;;;;;;16.83;8.63;;;6.60;80.70;;;;;;5082454;28;20111;-78
2021/04/20 00:52:55;;;;;;;21.70;8.85;;;6.60;80.90;;;;;;5093101;28;20531;-79
2021/04/20 00:55:20;;;;;;;18.50;9.20;;;6.70;81.00;;;;;;5112230;28;20119;-78
2021/04/20 00:57:47;;;;;;;16.03;8.73;;;6.60;80.50;;;;;;5098493;28;20102;-78
2021/04/20 01:00:24;;;;;;;17.67;9.10;;;6.60;80.30;;;;;;5095626;28;20032;-78
2021/04/20 01:02:50;;;;;;;18.13;8.77;;;6.60;80.60;;;;;;5099369;28;20020;-79
2021/04/20 01:05:21;;;;;;;16.43;8.90;;;6.50;80.80;;;;;;5110279;28;20106;-78
2021/04/20 01:07:47;;;;;;;16.33;8.40;;;6.50;80.60;;;;;;5091833;28;20022;-78
2021/04/20 01:10:14;;;;;;;16.87;8.10;;;6.50;79.80;;;;;;5094853;28;20027;-78
2021/04/20 01:12:41;;;;;;;17.00;8.20;;;6.50;79.20;;;;;;5094747;28;20030;-78
2021/04/20 01:15:10;;;;;;;20.60;9.17;;;6.30;79.20;;;;;;5096583;28;20107;-78
2021/04/20 01:17:36;;;;;;;17.67;8.50;;;6.20;79.30;;;;;;5091193;28;20047;-78
2021/04/20 01:20:07;;;;;;;17.47;8.67;;;6.20;79.30;;;;;;5100395;28;20453;-79
2021/04/20 01:22:35;;;;;;;16.55;8.23;;;6.10;79.80;;;;;;5091843;28;20023;-78
2021/04/20 01:25:05;;;;;;;18.60;8.83;;;6.10;80.00;;;;;;5108695;28;20069;-78
2021/04/20 01:27:30;;;;;;;17.33;8.70;;;6.00;80.00;;;;;;5094717;28;20092;-78
2021/04/20 01:29:57;;;;;;;15.83;8.13;;;6.00;80.20;;;;;;5091908;28;20549;-78
2021/04/20 01:32:23;;;;;;;16.37;8.57;;;6.00;80.40;;;;;;5094929;28;20019;-78
2021/04/20 01:34:50;;;;;;;19.03;7.90;;;6.00;80.70;;;;;;5091781;28;20024;-78
2021/04/20 01:37:16;;;;;;;15.47;8.13;;;6.00;80.70;;;;;;5109159;28;20486;-79
2021/04/20 01:39:47;;;;;;;16.97;8.97;;;6.00;80.80;;;;;;5095120;28;20110;-77
2021/04/20 01:42:13;;;;;;;17.70;9.20;;;6.10;80.70;;;;;;5112537;28;20491;-78
2021/04/20 01:44:40;;;;;;;18.53;8.90;;;6.10;80.60;;;;;;5095248;28;20022;-78
2021/04/20 01:47:06;;;;;;;17.53;8.20;;;6.00;80.80;;;;;;5094357;28;20035;-77
2021/04/20 01:49:31;;;;;;;16.10;7.87;;;6.00;80.60;;;;;;5094445;28;21303;-77
2021/04/20 01:51:58;;;;;;;18.80;8.33;;;6.00;80.40;;;;;;5090974;28;20616;-77
2021/04/20 01:54:23;;;;;;;16.50;8.83;;;6.00;80.60;;;;;;5082093;28;20020;-77
2021/04/20 01:56:50;;;;;;;15.60;7.97;;;6.00;80.40;;;;;;5085931;28;20035;-77
2021/04/20 01:59:17;;;;;;;16.17;8.47;;;6.10;79.80;;;;;;5081876;28;20089;-78
2021/04/20 02:01:44;;;;;;;17.20;8.50;;;6.00;79.70;;;;;;5086776;28;20107;-78
2021/04/20 02:04:10;;;;;;;19.50;8.77;;;6.00;79.90;;;;;;5071871;28;20020;-77
2021/04/20 02:06:36;;;;;;;20.53;9.17;;;6.00;79.70;;;;;;5082381;28;20049;-78
2021/04/20 02:09:04;;;;;;;16.73;8.60;;;5.90;79.90;;;;;;5092000;28;20040;-78
2021/04/20 02:11:29;;;;;;;16.80;8.00;;;5.90;80.10;;;;;;5090685;28;20035;-78
2021/04/20 02:13:58;;;;;;;14.90;7.83;;;5.80;80.10;;;;;;5086247;28;20020;-78
2021/04/20 02:16:24;;;;;;;15.43;7.63;;;5.90;79.90;;;;;;5081466;28;20031;-78
2021/04/20 02:19:05;;;;;;;17.97;9.10;;;5.80;79.60;;;;;;5095773;28;20354;-78
2021/04/20 02:21:32;;;;;;;16.20;8.60;;;5.80;79.40;;;;;;5091393;28;20024;-78
2021/04/20 02:23:58;;;;;;;19.07;8.37;;;5.70;79.30;;;;;;5080647;28;20020;-79
2021/04/20 02:26:37;;;;;;;14.83;8.63;;;5.70;79.90;;;;;;5084405;28;20028;-78
2021/04/20 02:29:08;;;;;;;22.70;8.60;;;5.60;79.80;;;;;;5100790;28;20104;-79
2021/04/20 02:31:39;;;;;;;15.40;8.52;;;5.60;80.10;;;;;;5096201;28;20453;-77
2021/04/20 02:34:11;;;;;;;15.33;7.97;;;5.60;80.10;;;;;;5095489;28;20441;-78
2021/04/20 02:36:39;;;;;;;22.98;9.50;;;5.60;80.20;;;;;;5096057;28;20077;-77
2021/04/20 02:39:06;;;;;;;17.70;8.60;;;5.70;79.80;;;;;;5096102;28;20028;-78
2021/04/20 02:41:32;;;;;;;15.87;8.57;;;5.80;79.30;;;;;;5096704;28;20020;-78
2021/04/20 02:44:00;;;;;;;16.67;8.20;;;5.80;78.40;;;;;;5095550;28;20026;-77
2021/04/20 02:46:26;;;;;;;16.57;7.90;;;5.70;78.60;;;;;;5093194;28;20066;-77
2021/04/20 02:48:52;;;;;;;16.47;8.70;;;5.40;78.90;;;;;;5076343;28;20063;-78
2021/04/20 02:51:18;;;;;;;16.73;8.83;;;5.40;79.40;;;;;;5094769;28;20047;-77
2021/04/20 02:53:45;;;;;;;16.13;8.83;;;5.30;79.60;;;;;;5098843;28;20153;-77
2021/04/20 02:56:12;;;;;;;14.93;7.97;;;5.20;80.00;;;;;;5097659;28;20047;-78
2021/04/20 02:58:39;;;;;;;16.50;7.60;;;5.20;80.60;;;;;;5096388;28;20027;-77
2021/04/20 03:01:16;;;;;;;16.97;8.60;;;5.20;80.60;;;;;;5116050;28;20029;-78
2021/04/20 03:03:43;;;;;;;16.60;8.63;;;5.10;81.00;;;;;;5098008;28;20582;-76
2021/04/20 03:06:09;;;;;;;18.17;9.23;;;5.10;81.80;;;;;;5097657;28;20020;-76
2021/04/20 03:08:35;;;;;;;16.53;8.37;;;5.00;82.00;;;;;;5097711;28;20020;-76
2021/04/20 03:11:16;;;;;;;16.40;8.90;;;5.10;82.20;;;;;;5097848;28;20024;-76
2021/04/20 03:13:44;;;;;;;18.43;8.77;;;5.00;82.20;;;;;;5097356;28;20376;-76
2021/04/20 03:16:12;;;;;;;19.27;8.00;;;5.10;81.80;;;;;;5096751;28;20051;-76
2021/04/20 03:18:38;;;;;;;18.23;8.87;;;5.10;81.70;;;;;;5097577;28;20493;-76
2021/04/20 03:21:16;;;;;;;17.37;8.10;;;5.00;81.70;;;;;;5097366;28;20080;-76
2021/04/20 03:23:42;;;;;;;15.43;8.23;;;5.00;82.00;;;;;;5096653;28;20023;-76
2021/04/20 03:26:23;;;;;;;16.20;8.70;;;5.10;82.00;;;;;;5096285;28;20104;-79
2021/04/20 03:28:55;;;;;;;18.70;8.80;;;5.20;82.30;;;;;;5115380;28;20020;-76
2021/04/20 03:31:20;;;;;;;11.10;5.78;;;5.10;82.10;;;;;;5096331;28;20440;-77
2021/04/20 03:34:08;;;;;;;15.93;8.70;;;5.00;82.20;;;;;;5097396;28;20537;-76
2021/04/20 03:36:39;;;;;;;15.70;8.17;;;5.10;82.40;;;;;;5080190;28;20026;-76
2021/04/20 03:39:19;;;;;;;20.48;8.80;;;5.00;82.70;;;;;;5115121;28;20032;-76
2021/04/20 03:41:58;;;;;;;17.90;8.60;;;5.00;82.70;;;;;;5096850;28;20456;-76
2021/04/20 03:44:34;;;;;;;17.63;8.90;;;5.00;82.70;;;;;;5097172;28;20072;-77
2021/04/20 03:47:02;;;;;;;17.47;8.20;;;5.00;82.80;;;;;;5097341;28;20118;-76
2021/04/20 03:49:35;;;;;;;19.77;9.30;;;5.10;83.30;;;;;;5095943;28;20480;-76
2021/04/20 03:52:03;;;;;;;20.90;9.20;;;5.00;84.70;;;;;;5096489;28;20071;-78
2021/04/20 03:54:32;;;;;;;18.50;8.20;;;5.00;85.20;;;;;;5097274;28;20026;-77
2021/04/20 03:57:00;;;;;;;19.13;9.13;;;4.90;84.20;;;;;;5097071;28;20073;-77
2021/04/20 03:59:29;;;;;;;16.57;8.40;;;4.90;83.40;;;;;;5114959;28;20019;-77
2021/04/20 04:01:57;;;;;;;16.47;8.53;;;4.90;83.40;;;;;;5077344;28;20020;-77
2021/04/20 04:04:25;;;;;;;13.97;7.80;;;4.90;82.90;;;;;;5108344;28;20063;-77
2021/04/20 04:06:52;;;;;;;15.40;8.67;;;4.90;82.40;;;;;;5115119;28;20023;-77
2021/04/20 04:09:19;;;;;;;15.87;7.97;;;4.90;81.80;;;;;;5096472;28;20069;-77
2021/04/20 04:12:08;;;;;;;16.77;8.53;;;5.00;81.60;;;;;;5097052;28;20072;-77
2021/04/20 04:14:36;;;;;;;18.30;8.90;;;5.00;81.10;;;;;;5097355;28;20016;-77
2021/04/20 04:17:06;;;;;;;15.73;8.83;;;4.90;81.00;;;;;;5096556;28;20027;-77
2021/04/20 04:19:41;;;;;;;16.27;8.33;;;5.00;80.70;;;;;;5096040;28;20035;-76
2021/04/20 04:22:12;;;;;;;18.13;8.57;;;4.90;80.70;;;;;;5096542;28;20055;-76
2021/04/20 04:24:50;;;;;;;19.60;9.27;;;4.80;80.70;;;;;;5096993;28;20064;-77
2021/04/20 04:27:21;;;;;;;19.57;8.67;;;4.80;80.90;;;;;;5114020;28;20153;-77
2021/04/20 04:29:48;;;;;;;20.77;8.90;;;4.80;80.90;;;;;;5096560;28;20024;-78
2021/04/20 04:32:16;;;;;;;15.77;7.83;;;4.70;81.10;;;;;;5096366;28;20130;-78
2021/04/20 04:34:43;;;;;;;16.97;7.63;;;4.80;81.30;;;;;;5114677;28;20019;-77
2021/04/20 04:37:10;;;;;;;17.90;8.00;;;4.80;81.20;;;;;;5114528;28;20031;-76
2021/04/20 04:39:36;;;;;;;14.63;7.47;;;4.90;80.80;;;;;;5113186;28;20094;-77
2021/04/20 04:42:03;;;;;;;17.77;8.20;;;4.90;80.60;;;;;;5114333;28;20035;-76
2021/04/20 04:44:29;;;;;;;17.17;8.50;;;4.90;80.50;;;;;;5113815;28;20048;-76
2021/04/20 04:46:54;;;;;;;16.43;8.47;;;4.80;80.60;;;;;;5113863;28;20526;-76
2021/04/20 04:49:21;;;;;;;16.37;8.23;;;4.80;81.10;;;;;;5095543;28;20054;-76
2021/04/20 04:51:48;;;;;;;15.53;7.97;;;4.70;81.30;;;;;;5114086;28;20062;-76
2021/04/20 04:54:16;;;;;;;15.30;8.60;;;4.70;81.50;;;;;;5113961;28;20032;-77
2021/04/20 04:56:43;;;;;;;15.23;8.07;;;4.70;81.50;;;;;;5095442;28;20474;-76
2021/04/20 04:59:11;;;;;;;18.27;8.10;;;4.70;81.50;;;;;;5095732;28;20032;-76
2021/04/20 05:01:38;;;;;;;14.90;7.97;;;4.70;81.50;;;;;;5095718;28;20015;-76
2021/04/20 05:04:09;;;;;;;17.20;8.63;;;4.80;81.30;;;;;;5095212;28;20031;-76
2021/04/20 05:06:40;;;;;;;17.25;8.52;;;4.80;81.20;;;;;;5094968;28;20092;-76
2021/04/20 05:09:10;;;;;;;15.63;8.07;;;4.90;81.10;;;;;;5113739;28;20474;-76
2021/04/20 05:11:39;;;;;;;16.13;8.07;;;4.80;81.20;;;;;;5094595;28;20491;-77
2021/04/20 05:14:05;;;;;;;18.33;8.67;;;4.80;81.50;;;;;;5094998;28;20023;-76
2021/04/20 05:16:31;;;;;;;15.93;8.73;;;4.80;82.00;;;;;;5094577;28;20489;-76
2021/04/20 05:19:01;;;;;;;18.33;9.23;;;4.80;82.20;;;;;;5113294;28;21086;-76
2021/04/20 05:21:27;;;;;;;15.83;7.90;;;4.80;82.30;;;;;;5095427;28;20356;-83
2021/04/20 05:23:53;;;;;;;16.17;8.47;;;4.90;82.60;;;;;;5095733;28;20408;-77
2021/04/20 05:26:19;;;;;;;17.60;8.73;;;4.90;82.70;;;;;;5096377;28;20027;-76
2021/04/20 05:28:44;;;;;;;19.60;9.20;;;4.90;83.00;;;;;;5095788;28;20110;-77
2021/04/20 05:31:10;;;;;;;15.87;8.30;;;4.90;83.40;;;;;;5095674;28;20062;-77
2021/04/20 05:33:36;;;;;;;17.60;8.80;;;4.90;83.80;;;;;;5094897;28;20452;-77
2021/04/20 05:36:09;;;;;;;20.53;9.27;;;5.00;84.10;;;;;;5095484;28;20111;-77
2021/04/20 05:38:35;;;;;;;18.23;9.67;;;5.00;84.30;;;;;;5075018;28;20063;-77
2021/04/20 05:41:02;;;;;;;18.43;8.77;;;5.00;84.50;;;;;;5107111;28;20066;-78
2021/04/20 05:43:28;;;;;;;16.50;9.20;;;5.10;84.70;;;;;;5095069;28;20077;-77
2021/04/20 05:45:54;;;;;;;19.70;9.13;;;5.20;84.90;;;;;;5095297;28;20106;-77
2021/04/20 05:48:20;;;;;;;17.50;9.40;;;5.20;85.10;;;;;;5095046;28;20070;-78
2021/04/20 05:50:51;;;;;;;20.27;9.57;;;5.30;85.40;;;;;;5098871;28;20020;-77
2021/04/20 05:53:17;;;;;;;21.13;9.38;;;5.40;86.00;;;;;;5091632;28;20028;-77
2021/04/20 05:55:43;;;;;;;25.13;12.10;;;5.50;85.50;;;;;;5099337;28;20054;-77
2021/04/20 05:58:10;;;;;;;19.57;9.70;;;5.50;85.80;;;;;;5099485;28;20020;-78
2021/04/20 06:00:36;;;;;;;18.43;9.97;;;5.60;85.80;;;;;;5117072;28;20037;-78
2021/04/20 06:03:02;;;;;;;21.53;10.27;;;5.60;85.30;;;;;;5099288;28;20019;-78
2021/04/20 06:05:31;;;;;;;20.70;11.30;;;5.70;84.90;;;;;;5099021;28;20046;-78
2021/04/20 06:08:04;;;;;;;25.57;11.03;;;5.70;84.80;;;;;;5099051;28;20028;-77
2021/04/20 06:10:31;;;;;;;21.30;11.20;;;5.80;85.00;;;;;;5078977;28;20020;-78
2021/04/20 06:12:57;;;;;;;21.40;10.67;;;5.80;84.90;;;;;;5108638;28;20023;-78
2021/04/20 06:15:24;;;;;;;23.50;10.87;;;5.90;84.90;;;;;;5117006;28;20102;-79
2021/04/20 06:17:52;;;;;;;23.73;11.23;;;6.00;84.90;;;;;;5117616;28;20550;-79
2021/04/20 06:20:20;;;;;;;18.97;10.73;;;6.10;85.70;;;;;;5099553;28;20028;-79
2021/04/20 06:22:48;;;;;;;21.37;10.57;;;6.20;84.80;;;;;;5099548;28;20020;-78
2021/04/20 06:25:16;;;;;;;21.07;10.43;;;6.20;84.80;;;;;;5099613;28;20022;-78
2021/04/20 06:27:43;;;;;;;22.93;10.77;;;6.20;85.10;;;;;;5098940;28;20027;-78
2021/04/20 06:30:10;;;;;;;22.20;10.33;;;6.30;84.90;;;;;;5099101;28;20118;-78
2021/04/20 06:32:41;;;;;;;18.10;9.73;;;6.50;84.70;;;;;;5099020;28;20027;-83
2021/04/20 06:35:08;;;;;;;21.40;10.53;;;6.50;84.10;;;;;;5098717;28;20088;-79
2021/04/20 06:37:39;;;;;;;22.40;10.40;;;6.50;83.80;;;;;;5096688;28;20072;-77
2021/04/20 06:40:20;;;;;;;20.70;10.53;;;6.60;84.10;;;;;;5098076;28;20092;-77
2021/04/20 06:42:57;;;;;;;20.60;10.60;;;6.60;84.20;;;;;;5098312;28;20471;-76
2021/04/20 06:45:47;;;;;;;23.93;11.20;;;6.70;84.30;;;;;;5115651;28;20028;-76
2021/04/20 06:48:36;;;;;;;21.83;11.10;;;6.80;84.20;;;;;;5079975;28;20044;-81
2021/04/20 06:51:08;;;;;;;22.70;10.77;;;6.80;84.30;;;;;;5116170;28;20444;-78
2021/04/20 06:53:38;;;;;;;;;;;6.80;84.90;;;;;;5090830;28;20024;-85
2021/04/20 06:56:11;;;;;;;22.53;10.57;;;6.90;85.20;;;;;;5091641;28;19954;-77
2021/04/20 06:59:08;;;;;;;25.97;12.17;;;6.90;85.00;;;;;;5077189;28;20032;-78
2021/04/20 07:02:10;;;;;;;22.93;11.37;;;6.90;84.90;;;;;;5093478;28;20081;-79
2021/04/20 07:04:44;;;;;;;;;;;7.00;85.40;;;;;;5058021;28;20118;-79
2021/04/20 07:07:31;;;;;;;20.37;10.70;;;7.00;85.30;;;;;;5115138;28;20257;-81
2021/04/20 07:10:19;;;;;;;24.80;12.10;;;7.10;85.30;;;;;;5115759;28;20020;-81
2021/04/20 07:12:48;;;;;;;21.73;11.33;;;7.20;85.00;;;;;;5096464;28;20016;-78
2021/04/20 07:15:20;;;;;;;22.47;10.30;;;7.20;85.20;;;;;;5097022;28;20031;-79
2021/04/20 07:18:01;;;;;;;24.55;11.75;;;7.30;85.10;;;;;;5115433;28;20076;-80
2021/04/20 07:20:42;;;;;;;20.63;11.43;;;7.40;85.00;;;;;;5096687;28;20059;-80
2021/04/20 07:23:25;;;;;;;23.60;11.57;;;7.50;84.80;;;;;;5115325;28;20016;-79
2021/04/20 07:26:21;;;;;;;23.97;12.57;;;7.50;84.90;;;;;;5115455;28;20020;-77
2021/04/20 07:29:13;;;;;;;23.07;11.50;;;7.50;84.90;;;;;;5114812;28;20090;-78
2021/04/20 07:32:11;;;;;;;23.83;12.05;;;7.50;84.80;;;;;;5090836;28;20036;-78
2021/04/20 07:34:48;;;;;;;26.67;12.33;;;7.60;85.20;;;;;;5077891;28;20028;-78
2021/04/20 07:37:51;;;;;;;25.10;12.07;;;7.60;84.70;;;;;;5096673;28;20023;-76
2021/04/20 07:40:29;;;;;;;24.17;12.65;;;7.70;85.00;;;;;;5096213;28;20036;-78
2021/04/20 07:42:56;;;;;;;23.10;11.63;;;7.80;85.10;;;;;;5114747;28;20028;-76
2021/04/20 07:45:30;;;;;;;25.63;12.87;;;7.80;84.90;;;;;;5095853;28;20118;-77
2021/04/20 07:48:07;;;;;;;24.15;12.52;;;7.90;85.00;;;;;;5096294;28;20034;-76
2021/04/20 07:50:42;;;;;;;23.63;11.90;;;8.00;85.00;;;;;;5095813;28;20119;-76
2021/04/20 07:53:29;;;;;;;23.63;12.23;;;8.00;84.90;;;;;;5092801;28;20082;-76
2021/04/20 07:56:04;;;;;;;27.38;13.18;;;8.10;85.10;;;;;;5092530;28;20023;-76
2021/04/20 07:58:37;;;;;;;30.05;13.75;;;8.10;85.00;;;;;;5091420;28;20024;-76
2021/04/20 08:01:18;;;;;;;28.15;13.40;;;8.20;84.90;;;;;;5092071;28;20032;-77
2021/04/20 08:04:14;;;;;;;28.90;13.52;;;8.20;84.70;;;;;;5093924;28;20035;-77
2021/04/20 08:06:44;;;;;;;27.83;13.90;;;8.30;85.00;;;;;;5059483;28;20050;-78
2021/04/20 08:09:17;;;;;;;25.52;13.45;;;8.30;84.90;;;;;;5078448;28;20055;-77
2021/04/20 08:11:52;;;;;;;27.85;13.65;;;8.40;84.80;;;;;;5092849;28;20565;-77
2021/04/20 08:14:44;;;;;;;30.48;13.85;;;8.50;84.80;;;;;;5088453;28;20024;-77
2021/04/20 08:17:21;;;;;;;28.27;13.18;;;8.50;84.40;;;;;;5093493;28;20024;-76
2021/04/20 08:19:56;;;;;;;29.65;13.88;;;8.60;84.70;;;;;;5092976;28;20036;-78
2021/04/20 08:22:22;;;;;;;32.25;15.23;;;8.80;84.50;;;;;;5088610;28;20054;-78
2021/04/20 08:24:51;;;;;;;30.00;14.05;;;8.90;83.70;;;;;;5091775;28;20043;-78
2021/04/20 08:27:35;;;;;;;29.15;14.02;;;8.90;83.40;;;;;;5089571;28;20056;-79
2021/04/20 08:30:21;;;;;;;29.10;14.48;;;9.00;83.20;;;;;;5093059;28;20032;-77
2021/04/20 08:32:50;;;;;;;26.30;14.55;;;9.00;83.00;;;;;;5072918;28;20070;-77
2021/04/20 08:35:22;;;;;;;28.40;14.57;;;9.10;83.30;;;;;;5083649;28;20028;-78
2021/04/20 08:37:57;;;;;;;31.45;15.18;;;9.10;82.60;;;;;;5091480;28;20028;-77
2021/04/20 08:40:48;;;;;;;28.50;15.23;;;9.10;82.60;;;;;;5079033;28;20039;-78
2021/04/20 08:43:41;;;;;;;30.90;15.13;;;9.30;82.90;;;;;;5068949;28;20123;-78
2021/04/20 08:46:34;;;;;;;32.70;14.77;;;9.30;82.70;;;;;;5094469;28;20468;-78
2021/04/20 08:50:00;;;;;;;29.02;14.90;;;9.40;82.30;;;;;;5089480;28;20028;-78
2021/04/20 08:52:50;;;;;;;29.88;16.10;;;9.50;82.00;;;;;;4994114;28;20054;-78
2021/04/20 08:55:43;;;;;;;31.63;15.95;;;9.50;81.80;;;;;;5011497;28;20118;-81
2021/04/20 08:58:20;;;;;;;32.35;15.55;;;9.60;81.50;;;;;;5034506;28;20045;-78
2021/04/20 09:00:50;;;;;;;30.88;15.65;;;9.70;81.20;;;;;;5085373;28;20475;-76
2021/04/20 09:03:42;;;;;;;32.40;15.70;;;9.70;80.90;;;;;;5089969;28;20052;-76
2021/04/20 09:06:12;;;;;;;30.88;15.50;;;9.80;81.10;;;;;;5092620;28;20024;-78
2021/04/20 09:08:41;;;;;;;30.38;15.77;;;9.80;81.00;;;;;;5090348;28;20043;-77
2021/04/20 09:11:26;;;;;;;26.27;14.90;;;9.90;80.60;;;;;;5092098;28;20039;-77
2021/04/20 09:14:04;;;;;;;31.75;15.52;;;10.00;80.00;;;;;;5091859;28;20054;-78
2021/04/20 09:16:50;;;;;;;32.58;15.25;;;10.00;80.10;;;;;;5092063;28;20080;-78
2021/04/20 09:19:36;;;;;;;31.40;15.40;;;10.10;80.30;;;;;;5082312;28;20028;-78
2021/04/20 09:22:21;;;;;;;26.98;14.18;;;10.20;79.50;;;;;;5080560;28;20020;-78
2021/04/20 09:25:13;;;;;;;30.15;15.65;;;10.30;79.50;;;;;;5085324;28;20040;-77
2021/04/20 09:28:10;;;;;;;26.85;14.90;;;10.40;79.00;;;;;;5070891;28;20484;-78
2021/04/20 09:30:55;;;;;;;32.80;15.90;;;10.50;78.70;;;;;;5091769;28;20028;-78
2021/04/20 09:33:28;;;;;;;28.27;15.40;;;10.60;78.20;;;;;;5073154;28;20028;-80
2021/04/20 09:35:55;;;;;;;31.27;15.93;;;10.70;77.70;;;;;;5081348;28;20046;-78
2021/04/20 09:38:22;;;;;;;29.77;15.68;;;10.70;77.50;;;;;;5091274;28;20110;-80
2021/04/20 09:40:50;;;;;;;30.15;14.57;;;10.80;77.00;;;;;;5091234;28;20031;-77
2021/04/20 09:43:31;;;;;;;26.50;14.35;;;10.90;76.60;;;;;;5089492;28;20028;-77
2021/04/20 09:46:01;;;;;;;25.83;13.82;;;11.00;75.80;;;;;;5092129;28;20066;-81
2021/04/20 09:48:44;;;;;;;25.08;12.65;;;11.10;74.80;;;;;;5092404;28;20067;-79
2021/04/20 09:51:15;;;;;;;25.50;12.13;;;11.30;74.00;;;;;;5088662;28;20051;-81
2021/04/20 09:54:01;;;;;;;24.23;13.82;;;11.60;72.80;;;;;;5113017;28;20028;-78
2021/04/20 09:56:44;;;;;;;26.85;13.93;;;11.70;72.60;;;;;;5091436;28;20024;-78
2021/04/20 09:59:28;;;;;;;27.48;14.68;;;11.80;74.00;;;;;;5092404;28;20055;-77
2021/04/20 10:02:28;;;;;;;27.67;13.90;;;11.90;72.50;;;;;;5095426;28;20020;-77
2021/04/20 10:05:03;;;;;;;28.85;14.38;;;12.10;72.10;;;;;;5090233;28;20024;-76
2021/04/20 10:07:50;;;;;;;27.33;14.60;;;12.10;70.40;;;;;;5112554;28;20162;-76
2021/04/20 10:10:45;;;;;;;26.63;13.65;;;12.20;70.80;;;;;;5094359;28;20020;-78
2021/04/20 10:13:31;;;;;;;24.00;12.77;;;12.30;70.90;;;;;;5084729;28;20093;-79
2021/04/20 10:16:12;;;;;;;27.48;12.75;;;12.40;72.00;;;;;;5084079;28;20499;-80
2021/04/20 10:19:11;;;;;;;26.45;12.68;;;12.40;71.80;;;;;;5088754;28;20039;-81
2021/04/20 10:21:58;;;;;;;23.05;12.07;;;12.50;70.30;;;;;;5102425;28;20062;-79
2021/04/20 10:24:26;;;;;;;23.40;11.52;;;12.60;69.70;;;;;;5092798;28;20376;-80
2021/04/20 10:27:17;;;;;;;20.88;10.57;;;12.50;68.60;;;;;;5082037;28;20020;-81
2021/04/20 10:29:56;;;;;;;21.23;11.07;;;12.50;69.50;;;;;;5108323;28;20024;-79
2021/04/20 10:32:34;;;;;;;22.00;11.82;;;12.50;69.80;;;;;;5077112;28;20016;-79
2021/04/20 10:35:02;;;;;;;21.83;12.00;;;12.50;68.80;;;;;;5085454;28;20024;-78
2021/04/20 10:37:39;;;;;;;21.17;11.82;;;12.50;68.20;;;;;;5079371;28;20027;-78
2021/04/20 10:40:09;;;;;;;22.55;11.60;;;12.60;68.40;;;;;;5095476;28;20108;-78
2021/04/20 10:42:39;;;;;;;21.63;11.65;;;12.50;68.40;;;;;;5099325;28;20520;-78
2021/04/20 10:45:07;;;;;;;20.33;11.02;;;12.70;68.90;;;;;;5097574;28;20151;-82
2021/04/20 10:47:36;;;;;;;21.48;10.82;;;12.80;67.90;;;;;;5114877;28;20063;-78
2021/04/20 10:50:04;;;;;;;18.50;10.15;;;12.90;68.20;;;;;;5080909;28;20051;-78
2021/04/20 10:52:35;;;;;;;19.33;9.60;;;12.90;68.40;;;;;;5115052;28;20364;-78
2021/04/20 10:55:08;;;;;;;17.92;9.57;;;13.00;67.50;;;;;;5116066;28;20095;-79
2021/04/20 10:57:36;;;;;;;17.25;9.52;;;13.00;67.10;;;;;;5114716;28;20035;-78
2021/04/20 11:00:04;;;;;;;16.25;8.80;;;13.00;66.90;;;;;;5096860;28;20126;-78
2021/04/20 11:02:42;;;;;;;17.38;9.85;;;13.00;66.50;;;;;;5115323;28;20027;-79
2021/04/20 11:05:10;;;;;;;18.52;9.80;;;13.10;65.10;;;;;;5096430;28;20023;-78
2021/04/20 11:07:38;;;;;;;16.80;9.25;;;13.10;62.90;;;;;;5095814;28;20077;-79
2021/04/20 11:10:06;;;;;;;17.55;9.07;;;13.10;63.10;;;;;;5095561;28;20141;-77
2021/04/20 11:12:32;;;;;;;14.45;8.55;;;13.10;62.90;;;;;;5108691;28;20350;-78
2021/04/20 11:14:59;;;;;;;14.35;8.20;;;13.10;62.90;;;;;;5108020;28;20020;-77
2021/04/20 11:17:54;;;;;;;14.10;7.93;;;13.10;62.70;;;;;;5084952;28;20118;-79
2021/04/20 11:20:47;;;;;;;13.25;7.50;;;13.60;62.80;;;;;;5064293;28;20040;-80
2021/04/20 11:23:20;;;;;;;13.63;7.10;;;13.80;61.70;;;;;;5095756;28;20019;-77
2021/04/20 11:25:57;;;;;;;12.80;6.60;;;14.00;59.80;;;;;;5096500;28;20024;-79
2021/04/20 11:28:41;;;;;;;13.32;6.65;;;14.20;61.20;;;;;;5090118;28;20020;-77
2021/04/20 11:31:34;;;;;;;12.82;6.45;;;14.20;59.80;;;;;;5114671;28;20031;-78
2021/04/20 11:34:27;;;;;;;12.88;6.50;;;14.20;57.70;;;;;;5114853;28;20019;-78
2021/04/20 11:37:02;;;;;;;13.13;6.65;;;14.30;56.50;;;;;;5107312;28;20450;-79
2021/04/20 11:39:41;;;;;;;12.20;6.20;;;14.30;56.50;;;;;;5092597;28;20499;-78
2021/04/20 11:42:11;;;;;;;15.13;8.13;;;14.40;57.60;;;;;;5095310;28;20051;-80
2021/04/20 11:44:39;;;;;;;13.32;7.45;;;14.40;58.40;;;;;;5112946;28;20099;-80
2021/04/20 11:47:08;;;;;;;12.77;7.18;;;14.60;57.60;;;;;;5113535;28;20027;-79
2021/04/20 11:49:36;;;;;;;13.98;7.95;;;14.60;58.60;;;;;;5095251;28;20376;-79
2021/04/20 11:52:04;;;;;;;10.52;6.25;;;14.70;58.70;;;;;;5114223;28;20500;-79
2021/04/20 11:54:33;;;;;;;11.05;6.30;;;14.80;56.80;;;;;;5114145;28;20077;-79
2021/04/20 11:57:05;;;;;;;12.35;6.38;;;14.80;55.50;;;;;;5104201;28;20024;-78
2021/04/20 11:59:32;;;;;;;12.10;6.70;;;14.80;55.90;;;;;;5083319;28;20016;-83
2021/04/20 12:02:00;;;;;;;9.65;5.93;;;14.60;56.90;;;;;;5110712;28;20028;-80
2021/04/20 12:04:33;;;;;;;11.43;6.63;;;14.70;56.40;;;;;;5089403;28;20452;-81
2021/04/20 12:06:59;;;;;;;10.48;6.20;;;14.70;55.50;;;;;;5085629;28;20023;-81
2021/04/20 12:09:32;;;;;;;12.18;6.50;;;14.80;55.50;;;;;;5096456;28;20471;-82
2021/04/20 12:11:59;;;;;;;13.52;7.78;;;14.80;55.90;;;;;;5093698;28;20034;-82
2021/04/20 12:14:28;;;;;;;12.70;7.13;;;15.00;55.70;;;;;;5080824;28;20384;-79
2021/04/20 12:16:57;;;;;;;13.63;7.65;;;15.00;55.80;;;;;;5091501;28;20035;-80
2021/04/20 12:19:26;;;;;;;14.48;7.70;;;15.10;55.40;;;;;;5093887;28;20032;-80
2021/04/20 12:21:55;;;;;;;13.35;6.65;;;15.20;54.50;;;;;;5108118;28;20031;-78
2021/04/20 12:24:23;;;;;;;12.15;6.97;;;15.30;54.80;;;;;;5093883;28;20176;-81
2021/04/20 12:26:55;;;;;;;20.10;7.50;;;15.40;54.10;;;;;;5114545;28;20028;-80
2021/04/20 12:29:24;;;;;;;11.98;6.57;;;15.40;54.00;;;;;;5095704;28;20028;-81
2021/04/20 12:31:50;;;;;;;13.77;7.55;;;15.50;53.20;;;;;;5113982;28;20036;-81
2021/04/20 12:34:24;;;;;;;13.60;7.25;;;15.70;53.10;;;;;;5095900;28;20020;-82
2021/04/20 12:36:53;;;;;;;15.80;7.80;;;16.20;52.90;;;;;;5106568;28;20112;-79
2021/04/20 12:39:36;;;;;;;11.73;6.30;;;16.50;52.80;;;;;;5090284;28;20019;-80
2021/04/20 12:42:05;;;;;;;12.52;6.18;;;16.50;51.30;;;;;;5114888;28;20027;-79
2021/04/20 12:44:53;;;;;;;11.55;6.28;;;16.80;53.50;;;;;;5095443;28;20046;-78
2021/04/20 12:47:26;;;;;;;9.82;5.97;;;17.00;50.70;;;;;;5094429;28;20023;-79
2021/04/20 12:49:52;;;;;;;10.85;6.10;;;17.30;50.20;;;;;;5079897;28;20058;-79
2021/04/20 12:52:23;;;;;;;9.68;5.88;;;17.60;50.60;;;;;;5111048;28;20117;-79
2021/04/20 12:54:53;;;;;;;10.10;5.88;;;17.80;49.00;;;;;;5069647;28;20022;-81
2021/04/20 12:57:21;;;;;;;10.35;5.30;;;18.00;48.20;;;;;;5091914;28;20582;-80
2021/04/20 12:59:53;;;;;;;8.40;5.20;;;17.90;50.00;;;;;;5090932;28;20043;-80
2021/04/20 13:02:20;;;;;;;8.95;5.25;;;18.10;49.30;;;;;;5113588;28;20352;-81
2021/04/20 13:04:47;;;;;;;7.57;4.80;;;18.00;49.50;;;;;;5094916;28;20024;-81
2021/04/20 13:07:14;;;;;;;10.23;5.43;;;17.80;49.40;;;;;;5095016;28;20023;-80
2021/04/20 13:09:41;;;;;;;7.95;5.03;;;18.00;49.10;;;;;;5089883;28;20559;-78